Riverton, Louisiana
Current Conditions -  °F | °C
As of 8:53 AM on Monday 24 Nov 2014 (Local Time) from KMLU Reporting Station
Clear Clear  
Wind Chill: 53°   Ceiling: Unl
Heat Index: 53°   Visibility: 10mi
Dew Point: 39°   Wind: 15mph
Humidity: 59%   Direction: 340°NNW
Pressure: 29.95"   Gusts: NA
Location:  32.1631°N, 92.1971°W
Report Text: KMLU 241453Z 34013KT 10SM CLR 12/04 A2995 RMK AO2 SLP143 T01170039 53035
Loading
Personal Weather Stations






























Interactive Weather Map New forecast layout! Learn more

10-Day Weather Forecast

Advertisements
Track Severe Weather on mobile